サンホセ/フアン・サンタ・マリア の空港の天気 - METARとTAF

フアン・サンタ・マリア国際空港 ( MROC / SJO ) - コスタリカ サンホセ
飛行場実況気象(Metar)
観測時間01/24 18:00 CST (01/25 00:00 UTC)
風向・風速西南西 3m/s
視程10km以上
天気現象
少しの雲 雲底高度 910m
気温23℃
湿度73%
気圧1016hPa
METARMROC 250000Z 24005KT 210V300 9999 FEW030 23/18 A3001 NOSIG
過去の天気等 Google飛行場航空写真 Wunderground天気予報

過去48時間のMETAR

飛行場予報(TAF)
発表時間: 1/24 17:00 CST (1/24 23:00 UTC)
予報対象時間: 24日18時 CST ~ 25日18時 CST
風向・風速西 4m/s
視程10km以上
少しの雲 雲底高度 1220m
24日19時 CST ~ 24日22時 CST に徐々に
風向・風速東 5m/s
25日10時 CST ~ 25日13時 CST に徐々に
風向・風速西南西 5m/s
MROC 242300Z 2500/2524 26007KT 9999 FEW040 TX30/2519Z TN19/2510Z
BECMG 2501/2504 09010KT
BECMG 2516/2519 25010KT